Terminal Aerodrome Forecast
Issued by NWS Billings, MT

Home | Current Version | Previous Version | Text Only | Print | Product List | Glossary On
Versions: 1 2 3 4 5 6 7 8 9 10 11 12 13 14 15 16 17 18 19 20 21 22 23 24 25 26 27 28 29 30 31 32 33 34 35 36 37 38 39 40 41 42 43 44 45 46
000
FTUS45 KBYZ 282102 AAB
TAFBIL
TAF AMD
KBIL 282102Z 2821/2918 10010KT P6SM VCTS SCT080CB BKN100
     FM282130 31020G35KT 6SM -TSRA SCT080CB BKN100
     FM282200 28012G15KT P6SM VCTS SCT080CB BKN100
     FM290000 27012KT P6SM VCSH SCT100
     FM291500 30015KT P6SM SCT060 SCT150=

USA.gov is the U.S. government's official web portal to all federal, state and local government web resources and services.